LIBN/LCC METAR and TAF weather

Enter ICAO airport designator
Station Type Date Time Source
LIBN METAR 2020/11/27 01:55 UTC NOAA

LIBN 270155Z VRB01KT 0400 FG SCT002 05/05 Q1023 RMK SCT VIS MIN 0400 WIND THR14 VRB01KT WIND THR32 VRB01KT RED


Station Type Date Time Source
LIBN Decoded METAR 2020/11/27 01:55 UTC NOAA

Lecce, Italy (LIBN) 40-14N 018-09E 61M
Nov 26, 2020 - 08:55 PM EST / 2020.11.27 0155 UTC
Wind: Variable at 1 MPH (1 KT):0
Visibility: less than 1 mile:0
Sky conditions: partly cloudy
Weather: fog
Temperature: 41 F (5 C)
Dew Point: 41 F (5 C)
Relative Humidity: 100%
Pressure (altimeter): 30.21 in. Hg (1023 hPa)
ob: LIBN 270155Z VRB01KT 0400 FG SCT002 05/05 Q1023 RMK SCT VIS MIN 0400 WIND THR14 VRB01KT WIND THR32 VRB01KT RED
cycle: 2

Station Type Date Time Source
LIBN TAF 2020/10/15 12:24 UTC NOAA

TAF TAF LIBN 151100Z 1512/1524 19020G30KT 9999 FEW020CB SCT030
TEMPO 1512/1521 18025G37KT 3000 TSRA FEW020CB BKN020

Example: see airport list